Hlavní strana
METAR-TAF:

METAR-TAF

Letiště :

Bodø, Norsko

zeměpisná šířka: 67-16N, zeměpisná délka: 014-22E, výška: 1 m

Aktuální stav počasí

Zpráva byla vytvořena před 27 minutami, v 20:50 UTC
Východní vítr 21 kt
Teplota 0°C
Vlhkost vzduchu 69%
Tlak 1003 hPa
Viditelnost 10 km a více
Skoro jasno ve výšce 4000 ft
Oblačno až skoro zataženo ve výšce 6000 ft

METAR: ENBO 122050Z 09021KT 9999 FEW040 BKN060 00/M05 Q1003 TEMPO 10025G35KT

Čas: 22:17 (21:17 UTC)

Předpověď počasí

Předpověď platná od 12 v 18 UTC do 13 v 18 UTC
Východní vítr 20 kt
Viditelnost 10 km a více
Skoro jasno ve výšce 4000 ft
Oblačno až skoro zataženo ve výšce 6000 ft
Dočasný
od 12 v 18 UTC do 13 v 09 UTC
Východní vítr 25 kt s nárazy do 35 kt
Změna
od 13 v 07 UTC do 13 v 10 UTC
Východní vítr 10 kt

TAF: ENBO 1218/1318 10020KT 9999 FEW040 BKN060 TEMPO 1218/1309 10025G35KT BECMG 1307/1310 10010KT

Stav a předpovědi počasí z více než 4 000 letišť (zprávy METAR a TAF).

Červené a žluté tečky na mapě představují dostupné meteorologické stanice.

Když kurzor umístíte na tečku, zobrazí se název stanice.

Pak kliknutím zobrazíte stav a předpověď počasí.

Chcete-li změnit mapu, kliknutím na zelené tlačítko se znaménkem +mapu přiblížíte, kliknutím na zelené tlačítko se znaménkem – mapu oddálíte a kliknutím na zelené šipky přejdete na sousední mapy.


METAR-TAF: